createdAt,value
2023-05-05T00:00:15.216Z,12.55
2023-05-05T00:01:15.190Z,12.62
2023-05-05T00:02:15.194Z,12.56
2023-05-05T00:03:15.242Z,12.59
2023-05-05T00:04:15.240Z,12.56
2023-05-05T00:05:15.147Z,12.46
2023-05-05T00:06:15.140Z,12.52
2023-05-05T00:07:15.152Z,12.49
2023-05-05T00:08:15.131Z,12.43
2023-05-05T00:09:15.104Z,12.33
2023-05-05T00:10:15.112Z,12.36
2023-05-05T00:11:15.089Z,12.43
2023-05-05T00:12:15.087Z,12.37
2023-05-05T00:13:15.125Z,12.26
2023-05-05T00:14:15.054Z,12.37
2023-05-05T00:15:15.064Z,12.25
2023-05-05T00:16:15.039Z,12.13
2023-05-05T00:17:15.081Z,12.30
2023-05-05T00:18:15.013Z,12.30
2023-05-05T00:19:15.008Z,12.19
2023-05-05T00:20:15.028Z,12.13
2023-05-05T00:21:14.995Z,12.11
2023-05-05T00:22:15.051Z,12.21
2023-05-05T00:23:14.966Z,12.18
2023-05-05T00:24:14.960Z,12.13
2023-05-05T00:25:14.948Z,12.16
2023-05-05T00:26:14.950Z,12.19
2023-05-05T00:27:14.929Z,12.15
2023-05-05T00:28:14.935Z,12.13
2023-05-05T00:29:14.903Z,12.07
2023-05-05T00:30:14.916Z,12.16
2023-05-05T00:31:14.937Z,12.19
2023-05-05T00:32:14.872Z,12.11
2023-05-05T00:33:14.880Z,12.12
2023-05-05T00:34:14.851Z,12.05
2023-05-05T00:35:14.848Z,12.15
2023-05-05T00:36:14.840Z,12.19
2023-05-05T00:37:14.820Z,12.15
2023-05-05T00:38:14.813Z,12.13
2023-05-05T00:39:14.796Z,12.08
2023-05-05T00:40:14.814Z,12.12
2023-05-05T00:41:14.782Z,12.05
2023-05-05T00:42:14.781Z,12.11
2023-05-05T00:43:14.752Z,12.07
2023-05-05T00:44:14.757Z,12.00
2023-05-05T00:45:14.741Z,12.00
2023-05-05T00:46:14.750Z,11.98
2023-05-05T00:47:14.725Z,12.00
2023-05-05T00:48:14.705Z,11.98
2023-05-05T00:49:14.760Z,12.03
2023-05-05T00:50:14.708Z,12.01
2023-05-05T00:51:14.673Z,12.11
2023-05-05T00:52:14.668Z,12.13
2023-05-05T00:53:14.673Z,12.13
2023-05-05T00:54:14.657Z,12.12
2023-05-05T00:55:14.635Z,12.16
2023-05-05T00:56:14.624Z,12.05
2023-05-05T00:57:14.617Z,12.15
2023-05-05T00:58:14.661Z,12.18
2023-05-05T00:59:14.607Z,12.12
2023-05-05T01:00:14.584Z,12.18
2023-05-05T01:01:14.634Z,12.21
2023-05-05T01:02:14.564Z,12.13
2023-05-05T01:03:14.629Z,12.19
2023-05-05T01:04:14.560Z,12.21
2023-05-05T01:05:14.547Z,12.15
2023-05-05T01:06:14.526Z,12.15
2023-05-05T01:07:14.512Z,12.05
2023-05-05T01:08:14.522Z,12.07
2023-05-05T01:09:14.508Z,12.07
2023-05-05T01:10:20.409Z,12.04
2023-05-05T01:11:16.472Z,12.08
2023-05-05T01:12:14.507Z,12.00
2023-05-05T01:13:14.550Z,11.97
2023-05-05T01:14:14.453Z,11.94
2023-05-05T01:15:14.434Z,12.03
2023-05-05T01:16:14.467Z,11.98
2023-05-05T01:17:14.427Z,11.98
2023-05-05T01:18:14.402Z,12.01
2023-05-05T01:19:14.390Z,12.01
2023-05-05T01:20:14.376Z,12.03
2023-05-05T01:21:14.382Z,12.00
2023-05-05T01:22:15.368Z,12.07
2023-05-05T01:23:14.350Z,12.04
2023-05-05T01:24:14.342Z,12.01
2023-05-05T01:25:14.329Z,12.00
2023-05-05T01:26:14.321Z,12.00
2023-05-05T01:27:14.325Z,12.03
2023-05-05T01:28:14.289Z,11.98
2023-05-05T01:29:14.283Z,12.01
2023-05-05T01:30:14.277Z,12.04
2023-05-05T01:31:14.292Z,12.11
2023-05-05T01:32:14.252Z,12.04
2023-05-05T01:33:14.247Z,12.16
2023-05-05T01:34:14.241Z,12.03
2023-05-05T01:35:14.220Z,12.05
2023-05-05T01:36:14.219Z,11.97
2023-05-05T01:37:14.201Z,11.94
2023-05-05T01:38:14.256Z,12.01
2023-05-05T01:39:14.178Z,11.98
2023-05-05T01:40:14.182Z,11.98
2023-05-05T01:41:14.168Z,11.93
2023-05-05T01:42:14.152Z,11.90
2023-05-05T01:43:14.136Z,12.00
2023-05-05T01:44:14.124Z,11.94
2023-05-05T01:45:14.130Z,11.98
2023-05-05T01:46:14.204Z,11.87
2023-05-05T01:47:14.108Z,11.88
2023-05-05T01:48:14.149Z,11.87
2023-05-05T01:49:14.077Z,11.90
2023-05-05T01:50:14.081Z,11.88
2023-05-05T01:51:14.060Z,11.93
2023-05-05T01:52:14.048Z,11.90
2023-05-05T01:53:14.041Z,12.00
2023-05-05T01:54:14.050Z,11.93
2023-05-05T01:55:14.024Z,12.00
2023-05-05T01:56:14.031Z,11.93
2023-05-05T01:57:13.986Z,11.94
2023-05-05T01:58:13.994Z,12.01
2023-05-05T01:59:13.981Z,11.93
2023-05-05T02:00:14.007Z,12.07
2023-05-05T02:01:14.004Z,11.96
2023-05-05T02:02:13.954Z,11.94
2023-05-05T02:03:14.017Z,12.00
2023-05-05T02:04:13.933Z,12.03
2023-05-05T02:05:13.912Z,11.98
2023-05-05T02:06:13.903Z,12.01
2023-05-05T02:07:13.888Z,12.04
2023-05-05T02:08:13.887Z,11.98
2023-05-05T02:09:13.913Z,12.03
2023-05-05T02:10:13.854Z,12.01
2023-05-05T02:11:13.850Z,11.96
2023-05-05T02:12:13.840Z,11.90
2023-05-05T02:13:13.904Z,11.90
2023-05-05T02:14:13.835Z,11.84
2023-05-05T02:15:13.811Z,11.97
2023-05-05T02:16:13.898Z,12.03
2023-05-05T02:17:13.793Z,12.00
2023-05-05T02:18:13.788Z,12.00
2023-05-05T02:19:13.772Z,12.00
2023-05-05T02:20:13.761Z,12.04
2023-05-05T02:21:13.752Z,12.08
2023-05-05T02:22:13.756Z,12.11
2023-05-05T02:23:13.741Z,12.13
2023-05-05T02:24:13.721Z,12.19
2023-05-05T02:25:13.709Z,12.15
2023-05-05T02:26:13.698Z,12.15
2023-05-05T02:27:13.705Z,12.21
2023-05-05T02:28:13.681Z,12.19
2023-05-05T02:29:13.663Z,12.23
2023-05-05T02:30:13.653Z,12.19
2023-05-05T02:31:13.647Z,12.21
2023-05-05T02:32:13.644Z,12.22
2023-05-05T02:33:13.626Z,12.30
2023-05-05T02:34:13.618Z,12.30
2023-05-05T02:35:13.604Z,12.33
2023-05-05T02:36:13.597Z,12.40
2023-05-05T02:37:13.601Z,12.41
2023-05-05T02:38:13.571Z,12.37
2023-05-05T02:39:13.567Z,12.33
2023-05-05T02:40:13.568Z,12.37
2023-05-05T02:41:13.568Z,12.40
2023-05-05T02:42:13.535Z,12.38
2023-05-05T02:43:13.588Z,12.41
2023-05-05T02:44:13.519Z,12.37
2023-05-05T02:45:13.511Z,12.48
2023-05-05T02:46:13.547Z,12.44
2023-05-05T02:47:13.483Z,12.46
2023-05-05T02:48:13.488Z,12.40
2023-05-05T02:49:13.460Z,12.49
2023-05-05T02:50:13.462Z,12.54
2023-05-05T02:51:13.464Z,12.59
2023-05-05T02:52:13.428Z,12.54
2023-05-05T02:53:13.423Z,12.56
2023-05-05T02:54:13.414Z,12.58
2023-05-05T02:55:13.408Z,12.58
2023-05-05T02:56:13.412Z,12.58
2023-05-05T02:57:13.379Z,12.55
2023-05-05T02:58:13.371Z,12.59
2023-05-05T02:59:15.883Z,12.63
2023-05-05T03:00:14.381Z,12.61
2023-05-05T03:01:13.372Z,12.56
2023-05-05T03:02:13.332Z,12.54
2023-05-05T03:03:13.361Z,12.61
2023-05-05T03:04:13.324Z,12.67
2023-05-05T03:05:13.311Z,12.66
2023-05-05T03:06:13.292Z,12.67
2023-05-05T03:07:13.276Z,12.76
2023-05-05T03:08:13.270Z,12.67
2023-05-05T03:09:13.266Z,12.77
2023-05-05T03:10:13.284Z,12.71
2023-05-05T03:11:13.241Z,12.76
2023-05-05T03:12:13.234Z,12.71
2023-05-05T03:13:13.357Z,12.73
2023-05-05T03:14:13.227Z,12.71
2023-05-05T03:15:13.215Z,12.69
2023-05-05T03:16:13.248Z,12.69
2023-05-05T03:17:13.179Z,12.80
2023-05-05T03:18:13.183Z,12.70
2023-05-05T03:19:13.179Z,12.74
2023-05-05T03:20:13.161Z,12.74
2023-05-05T03:21:13.143Z,12.76
2023-05-05T03:22:13.136Z,12.84
2023-05-05T03:23:13.176Z,12.70
2023-05-05T03:24:13.111Z,12.69
2023-05-05T03:25:13.106Z,12.84
2023-05-05T03:26:13.087Z,12.79
2023-05-05T03:27:13.092Z,12.77
2023-05-05T03:28:13.076Z,12.74
2023-05-05T03:29:13.062Z,12.76
2023-05-05T03:30:13.049Z,12.74
2023-05-05T03:31:13.029Z,12.76
2023-05-05T03:32:13.087Z,12.70
2023-05-05T03:33:13.066Z,12.66
2023-05-05T03:34:13.007Z,12.59
2023-05-05T03:35:12.994Z,12.52
2023-05-05T03:36:12.997Z,12.38
2023-05-05T03:37:12.975Z,12.38
2023-05-05T03:38:12.964Z,12.36
2023-05-05T03:39:12.958Z,12.51
2023-05-05T03:40:12.946Z,12.40
2023-05-05T03:41:12.948Z,12.34
2023-05-05T03:42:12.932Z,12.43
2023-05-05T03:43:12.924Z,12.31
2023-05-05T03:44:12.902Z,12.26
2023-05-05T03:45:12.896Z,12.29
2023-05-05T03:46:12.990Z,12.29
2023-05-05T03:47:13.883Z,12.19
2023-05-05T03:48:12.866Z,12.25
2023-05-05T03:49:12.861Z,12.31
2023-05-05T03:50:12.834Z,12.34
2023-05-05T03:51:12.858Z,12.34
2023-05-05T03:52:14.943Z,12.30
2023-05-05T03:53:13.805Z,12.26
2023-05-05T03:54:12.801Z,12.33
2023-05-05T03:55:44.713Z,12.23
2023-05-05T03:56:12.776Z,12.23
2023-05-05T03:57:12.782Z,12.16
2023-05-05T03:58:12.773Z,12.26
2023-05-05T03:59:12.752Z,12.31
2023-05-05T04:00:12.752Z,12.29
2023-05-05T04:01:12.749Z,12.22
2023-05-05T04:02:12.737Z,12.25
2023-05-05T04:03:12.797Z,12.33
2023-05-05T04:04:12.793Z,12.36
2023-05-05T04:05:12.710Z,12.33
2023-05-05T04:06:12.679Z,12.33
2023-05-05T04:07:12.667Z,12.23
2023-05-05T04:08:12.661Z,12.36
2023-05-05T04:09:12.661Z,12.26
2023-05-05T04:10:12.651Z,12.33
2023-05-05T04:11:12.629Z,12.19
2023-05-05T04:12:12.624Z,12.16
2023-05-05T04:13:12.816Z,12.23
2023-05-05T04:14:12.624Z,12.29
2023-05-05T04:15:12.593Z,12.26
2023-05-05T04:16:12.614Z,12.29
2023-05-05T04:17:12.569Z,12.22
2023-05-05T04:18:12.565Z,12.15
2023-05-05T04:19:12.553Z,12.33
2023-05-05T04:20:12.556Z,12.40
2023-05-05T04:21:12.530Z,12.49
2023-05-05T04:22:12.527Z,12.46
2023-05-05T04:23:12.534Z,12.44
2023-05-05T04:24:12.512Z,12.48
2023-05-05T04:25:12.493Z,12.52
2023-05-05T04:26:12.485Z,12.54
2023-05-05T04:27:12.474Z,12.61
2023-05-05T04:28:12.488Z,12.54
2023-05-05T04:29:12.455Z,12.66
2023-05-05T04:30:12.452Z,12.77
2023-05-05T04:31:12.495Z,12.77
2023-05-05T04:32:12.426Z,12.84
2023-05-05T04:33:12.424Z,12.87
2023-05-05T04:34:12.403Z,12.91
2023-05-05T04:35:12.391Z,13.03
2023-05-05T04:36:12.380Z,12.95
2023-05-05T04:37:12.383Z,13.13
2023-05-05T04:38:12.372Z,13.12
2023-05-05T04:39:12.358Z,13.16
2023-05-05T04:40:12.340Z,13.16
2023-05-05T04:41:12.349Z,13.14
2023-05-05T04:42:12.330Z,13.25
2023-05-05T04:43:12.319Z,13.38
2023-05-05T04:44:12.296Z,13.32
2023-05-05T04:45:12.293Z,13.39
2023-05-05T04:46:12.286Z,13.47
2023-05-05T04:47:14.554Z,13.47
2023-05-05T04:48:13.258Z,13.47
2023-05-05T04:49:12.241Z,13.48
2023-05-05T04:50:12.257Z,13.51
2023-05-05T04:51:12.225Z,13.66
2023-05-05T04:52:12.231Z,13.55
2023-05-05T04:53:12.202Z,13.68
2023-05-05T04:54:12.196Z,13.62
2023-05-05T04:55:12.202Z,13.71
2023-05-05T04:56:12.186Z,13.59
2023-05-05T04:57:12.207Z,13.68
2023-05-05T04:58:12.151Z,13.68
2023-05-05T04:59:12.142Z,13.72
2023-05-05T05:00:12.128Z,13.86
2023-05-05T05:01:12.183Z,13.91
2023-05-05T05:02:12.129Z,13.96
2023-05-05T05:03:12.168Z,13.88
2023-05-05T05:04:12.094Z,13.88
2023-05-05T05:05:12.090Z,13.98
2023-05-05T05:06:12.095Z,13.87
2023-05-05T05:07:12.050Z,13.87
2023-05-05T05:08:13.052Z,13.86
2023-05-05T05:09:12.041Z,13.94
2023-05-05T05:10:12.038Z,13.75
2023-05-05T05:11:12.035Z,13.71
2023-05-05T05:12:12.006Z,13.73
2023-05-05T05:13:12.777Z,13.88
2023-05-05T05:14:12.992Z,14.06
2023-05-05T05:15:11.983Z,14.08
2023-05-05T05:16:12.002Z,14.09
2023-05-05T05:17:11.964Z,14.12
2023-05-05T05:18:11.949Z,14.26
2023-05-05T05:19:11.953Z,14.27
2023-05-05T05:20:11.971Z,14.30
2023-05-05T05:21:11.925Z,14.35
2023-05-05T05:22:11.907Z,14.49
2023-05-05T05:23:11.910Z,14.49
2023-05-05T05:24:11.900Z,14.36
2023-05-05T05:25:11.886Z,14.44
2023-05-05T05:26:11.871Z,14.29
2023-05-05T05:27:11.857Z,14.31
2023-05-05T05:28:11.851Z,14.27
2023-05-05T05:29:11.855Z,14.17
2023-05-05T05:30:11.823Z,14.08
2023-05-05T05:31:11.807Z,14.06
2023-05-05T05:32:12.940Z,14.08
2023-05-05T05:33:11.887Z,14.09
2023-05-05T05:34:12.918Z,14.08
2023-05-05T05:35:12.847Z,14.26
2023-05-05T05:36:11.772Z,14.09
2023-05-05T05:37:11.757Z,14.11
2023-05-05T05:38:11.762Z,14.26
2023-05-05T05:39:11.766Z,14.20
2023-05-05T05:40:11.764Z,14.23
2023-05-05T05:41:11.713Z,14.05
2023-05-05T05:42:11.711Z,13.99
2023-05-05T05:43:11.722Z,14.04
2023-05-05T05:44:11.689Z,14.06
2023-05-05T05:45:11.679Z,14.12
2023-05-05T05:46:11.712Z,14.17
2023-05-05T05:47:11.667Z,14.24
2023-05-05T05:48:11.679Z,14.35
2023-05-05T05:49:11.644Z,14.38
2023-05-05T05:50:11.630Z,14.42
2023-05-05T05:51:11.620Z,14.48
2023-05-05T05:52:11.619Z,14.53
2023-05-05T05:53:11.605Z,14.54
2023-05-05T05:54:11.592Z,14.95
2023-05-05T05:55:11.578Z,14.87
2023-05-05T05:56:11.564Z,14.74
2023-05-05T05:57:11.565Z,14.45
2023-05-05T05:58:11.545Z,14.80
2023-05-05T05:59:11.535Z,15.19
2023-05-05T06:00:11.540Z,15.34
2023-05-05T06:01:11.547Z,15.41
2023-05-05T06:02:11.558Z,15.28
2023-05-05T06:03:12.690Z,15.04
2023-05-05T06:04:11.540Z,14.95
2023-05-05T06:05:11.475Z,15.16
2023-05-05T06:06:11.477Z,15.43
2023-05-05T06:07:11.449Z,15.49
2023-05-05T06:08:11.442Z,15.19
2023-05-05T06:09:11.433Z,15.22
2023-05-05T06:10:25.925Z,15.33
2023-05-05T06:11:13.430Z,15.23
2023-05-05T06:12:11.404Z,15.23
2023-05-05T06:13:11.429Z,15.27
2023-05-05T06:14:11.388Z,15.28
2023-05-05T06:15:11.386Z,15.23
2023-05-05T06:16:11.541Z,15.38
2023-05-05T06:17:11.356Z,15.41
2023-05-05T06:18:11.364Z,15.43
2023-05-05T06:19:11.332Z,15.38
2023-05-05T06:20:11.340Z,15.51
2023-05-05T06:21:11.319Z,15.46
2023-05-05T06:22:11.307Z,15.43
2023-05-05T06:23:11.291Z,15.66
2023-05-05T06:24:11.289Z,15.49
2023-05-05T06:25:11.274Z,15.30
2023-05-05T06:26:11.262Z,15.13
2023-05-05T06:27:11.255Z,15.13
2023-05-05T06:28:11.242Z,15.07
2023-05-05T06:29:12.323Z,15.33
2023-05-05T06:30:12.242Z,15.62
2023-05-05T06:31:11.247Z,15.49
2023-05-05T06:32:11.206Z,15.49
2023-05-05T06:33:11.189Z,15.44
2023-05-05T06:34:11.198Z,16.01
2023-05-05T06:35:11.179Z,16.69
2023-05-05T06:36:11.233Z,17.18
2023-05-05T06:37:11.154Z,17.20
2023-05-05T06:38:11.144Z,17.15
2023-05-05T06:39:11.152Z,17.15
2023-05-05T06:40:11.262Z,17.07
2023-05-05T06:41:11.112Z,16.99
2023-05-05T06:42:11.105Z,17.09
2023-05-05T06:43:11.115Z,17.05
2023-05-05T06:44:11.092Z,17.42
2023-05-05T06:45:12.076Z,17.42
2023-05-05T06:46:11.063Z,17.32
2023-05-05T06:47:11.065Z,17.24
2023-05-05T06:48:11.067Z,17.18
2023-05-05T06:49:11.063Z,17.10
2023-05-05T06:50:11.181Z,17.06
2023-05-05T06:51:12.032Z,17.07
2023-05-05T06:52:11.012Z,17.03
2023-05-05T06:53:11.011Z,16.90
2023-05-05T06:54:11.006Z,16.70
2023-05-05T06:55:10.986Z,16.30
2023-05-05T06:56:10.967Z,16.11
2023-05-05T06:57:12.005Z,15.89
2023-05-05T06:58:10.966Z,15.99
2023-05-05T06:59:10.939Z,15.96
2023-05-05T07:00:11.032Z,16.04
2023-05-05T07:01:11.009Z,16.16
2023-05-05T07:02:10.926Z,15.93
2023-05-05T07:03:10.967Z,15.80
2023-05-05T07:04:10.999Z,15.59
2023-05-05T07:05:10.889Z,15.60
2023-05-05T07:06:10.874Z,15.55
2023-05-05T07:07:10.879Z,15.46
2023-05-05T07:08:10.853Z,15.49
2023-05-05T07:09:10.847Z,15.92
2023-05-05T07:10:10.887Z,16.29
2023-05-05T07:11:10.840Z,16.65
2023-05-05T07:12:10.824Z,17.02
2023-05-05T07:13:10.854Z,17.25
2023-05-05T07:14:10.784Z,17.14
2023-05-05T07:15:23.786Z,16.84
2023-05-05T07:16:12.873Z,16.75
2023-05-05T07:17:10.764Z,16.73
2023-05-05T07:18:10.814Z,16.66
2023-05-05T07:19:10.746Z,16.17
2023-05-05T07:20:10.947Z,15.86
2023-05-05T07:21:10.729Z,16.27
2023-05-05T07:22:10.711Z,16.57
2023-05-05T07:23:10.704Z,16.80
2023-05-05T07:24:10.710Z,16.60
2023-05-05T07:25:10.726Z,16.33
2023-05-05T07:26:10.682Z,16.27
2023-05-05T07:27:10.667Z,16.40
2023-05-05T07:28:10.659Z,16.48
2023-05-05T07:29:10.654Z,16.63
2023-05-05T07:30:13.981Z,16.85
2023-05-05T07:31:11.637Z,16.98
2023-05-05T07:32:10.717Z,17.09
2023-05-05T07:33:10.803Z,16.80
2023-05-05T07:34:10.592Z,16.36
2023-05-05T07:35:10.597Z,16.25
2023-05-05T07:36:10.579Z,16.07
2023-05-05T07:37:10.563Z,16.14
2023-05-05T07:38:10.994Z,16.52
2023-05-05T07:39:10.552Z,16.62
2023-05-05T07:40:10.855Z,16.67
2023-05-05T07:41:10.524Z,16.69
2023-05-05T07:42:10.525Z,16.72
2023-05-05T07:43:10.506Z,16.87
2023-05-05T07:44:10.501Z,16.77
2023-05-05T07:45:10.479Z,16.59
2023-05-05T07:46:10.503Z,16.52
2023-05-05T07:47:10.462Z,16.55
2023-05-05T07:48:10.847Z,16.88
2023-05-05T07:49:10.460Z,17.20
2023-05-05T07:50:10.761Z,17.42
2023-05-05T07:51:10.426Z,17.71
2023-05-05T07:52:10.413Z,18.01
2023-05-05T07:53:14.983Z,18.19
2023-05-05T07:54:11.407Z,18.07
2023-05-05T07:55:10.384Z,17.81
2023-05-05T07:56:10.372Z,17.83
2023-05-05T07:57:10.371Z,17.95
2023-05-05T07:58:10.373Z,17.92
2023-05-05T07:59:10.367Z,17.83
2023-05-05T08:00:10.496Z,17.94
2023-05-05T08:01:10.321Z,17.80
2023-05-05T08:02:10.331Z,17.81
2023-05-05T08:03:11.994Z,17.74
2023-05-05T08:04:11.422Z,17.81
2023-05-05T08:05:10.551Z,17.86
2023-05-05T08:06:10.321Z,17.84
2023-05-05T08:07:10.272Z,17.80
2023-05-05T08:08:10.284Z,17.79
2023-05-05T08:09:10.242Z,17.60
2023-05-05T08:10:10.228Z,17.60
2023-05-05T08:11:10.222Z,17.62
2023-05-05T08:12:10.253Z,17.57
2023-05-05T08:13:10.283Z,17.57
2023-05-05T08:14:10.272Z,17.65
2023-05-05T08:15:10.332Z,17.63
2023-05-05T08:16:10.192Z,17.76
2023-05-05T08:17:10.174Z,17.63
2023-05-05T08:18:10.155Z,17.60
2023-05-05T08:19:21.266Z,17.45
2023-05-05T08:20:12.205Z,17.36
2023-05-05T08:21:10.142Z,17.43
2023-05-05T08:22:10.130Z,17.51
2023-05-05T08:23:10.107Z,17.45
2023-05-05T08:24:10.096Z,17.49
2023-05-05T08:25:10.182Z,17.39
2023-05-05T08:26:10.096Z,17.15
2023-05-05T08:27:10.066Z,16.90
2023-05-05T08:28:10.054Z,16.65
2023-05-05T08:29:10.051Z,16.60
2023-05-05T08:30:10.065Z,16.73
2023-05-05T08:31:10.088Z,16.81
2023-05-05T08:32:10.042Z,17.02
2023-05-05T08:33:10.049Z,17.18
2023-05-05T08:34:10.007Z,17.07
2023-05-05T08:35:10.358Z,17.17
2023-05-05T08:36:10.060Z,17.45
2023-05-05T08:37:09.972Z,17.53
2023-05-05T08:38:09.968Z,17.54
2023-05-05T08:39:09.953Z,17.57
2023-05-05T08:40:09.962Z,17.71
2023-05-05T08:41:09.932Z,17.73
2023-05-05T08:42:09.923Z,17.91
2023-05-05T08:43:09.918Z,17.92
2023-05-05T08:44:09.908Z,17.98
2023-05-05T08:45:10.602Z,18.17
2023-05-05T08:46:09.883Z,18.21
2023-05-05T08:47:10.004Z,18.34
2023-05-05T08:48:09.886Z,18.47
2023-05-05T08:49:09.860Z,18.42
2023-05-05T08:50:09.859Z,18.14
2023-05-05T08:51:09.841Z,17.81
2023-05-05T08:52:10.011Z,17.81
2023-05-05T08:53:10.826Z,17.46
2023-05-05T08:54:09.817Z,17.33
2023-05-05T08:55:10.000Z,17.22
2023-05-05T08:56:09.819Z,17.30
2023-05-05T08:57:09.796Z,17.38
2023-05-05T08:58:09.778Z,17.54
2023-05-05T08:59:10.774Z,17.71
2023-05-05T09:00:09.767Z,17.73
2023-05-05T09:01:09.756Z,17.91
2023-05-05T09:02:10.800Z,17.81
2023-05-05T09:03:09.772Z,17.70
2023-05-05T09:04:09.785Z,17.66
2023-05-05T09:05:10.035Z,17.62
2023-05-05T09:06:09.682Z,17.58
2023-05-05T09:07:09.682Z,17.65
2023-05-05T09:08:09.787Z,17.43
2023-05-05T09:09:09.668Z,17.43
2023-05-05T09:10:09.643Z,17.32
2023-05-05T09:11:09.641Z,17.33
2023-05-05T09:12:09.643Z,17.46
2023-05-05T09:13:09.657Z,17.76
2023-05-05T09:14:09.606Z,17.77
2023-05-05T09:15:09.847Z,17.95
2023-05-05T09:16:09.594Z,17.91
2023-05-05T09:17:09.664Z,17.73
2023-05-05T09:18:09.653Z,17.53
2023-05-05T09:19:09.563Z,17.47
2023-05-05T09:20:09.550Z,17.40
2023-05-05T09:21:09.543Z,17.66
2023-05-05T09:22:09.564Z,17.77
2023-05-05T09:23:09.535Z,18.02
2023-05-05T09:24:09.799Z,18.21
2023-05-05T09:25:09.677Z,18.50
2023-05-05T09:26:09.508Z,18.57
2023-05-05T09:27:09.499Z,18.87
2023-05-05T09:28:09.479Z,19.16
2023-05-05T09:29:09.470Z,19.30
2023-05-05T09:30:09.471Z,19.42
2023-05-05T09:31:09.500Z,19.64
2023-05-05T09:32:09.458Z,19.76
2023-05-05T09:33:09.477Z,19.83
2023-05-05T09:34:09.423Z,20.00
2023-05-05T09:35:09.584Z,20.12
2023-05-05T09:36:09.428Z,20.15
2023-05-05T09:37:09.427Z,20.25
2023-05-05T09:38:09.386Z,20.48
2023-05-05T09:39:09.381Z,20.60
2023-05-05T09:40:09.435Z,20.79
2023-05-05T09:41:09.371Z,20.83
2023-05-05T09:42:09.344Z,20.93
2023-05-05T09:43:09.338Z,21.03
2023-05-05T09:44:09.327Z,21.09
2023-05-05T09:45:09.581Z,21.26
2023-05-05T09:46:09.368Z,21.27
2023-05-05T09:47:22.006Z,21.18
2023-05-05T09:48:11.391Z,21.26
2023-05-05T09:49:09.279Z,21.33
2023-05-05T09:50:09.479Z,21.37
2023-05-05T09:51:09.269Z,21.13
2023-05-05T09:52:09.250Z,21.26
2023-05-05T09:53:09.242Z,21.33
2023-05-05T09:54:09.238Z,20.98
2023-05-05T09:55:41.225Z,20.83
2023-05-05T09:56:09.210Z,20.72
2023-05-05T09:57:09.201Z,20.75
2023-05-05T09:58:09.231Z,20.78
2023-05-05T09:59:09.204Z,20.73
2023-05-05T10:00:09.346Z,20.68
2023-05-05T10:01:09.174Z,20.58
2023-05-05T10:02:10.158Z,20.58
2023-05-05T10:03:09.164Z,20.60
2023-05-05T10:04:09.148Z,20.72
2023-05-05T10:05:09.293Z,20.71
2023-05-05T10:06:09.122Z,20.76
2023-05-05T10:07:09.104Z,20.72
2023-05-05T10:08:09.092Z,20.82
2023-05-05T10:09:09.097Z,20.66
2023-05-05T10:10:09.318Z,20.48
2023-05-05T10:11:09.363Z,20.34
2023-05-05T10:12:09.066Z,20.46
2023-05-05T10:13:09.121Z,20.72
2023-05-05T10:14:09.046Z,20.81
2023-05-05T10:15:09.025Z,20.76
2023-05-05T10:16:09.108Z,20.72
2023-05-05T10:17:09.010Z,20.56
2023-05-05T10:18:09.026Z,20.56
2023-05-05T10:19:08.998Z,20.72
2023-05-05T10:20:09.118Z,20.64
2023-05-05T10:21:08.986Z,20.61
2023-05-05T10:22:08.960Z,20.60
2023-05-05T10:23:08.956Z,20.61
2023-05-05T10:24:08.935Z,20.61
2023-05-05T10:25:08.931Z,20.58
2023-05-05T10:26:08.913Z,20.60
2023-05-05T10:27:09.784Z,20.44
2023-05-05T10:28:08.913Z,20.31
2023-05-05T10:29:08.900Z,20.46
2023-05-05T10:30:09.120Z,20.44
2023-05-05T10:31:23.892Z,20.17
2023-05-05T10:32:33.562Z,20.05
2023-05-05T10:34:09.907Z,20.05
2023-05-05T10:35:08.837Z,19.92
2023-05-05T10:36:08.833Z,19.83
2023-05-05T10:37:08.826Z,19.90
2023-05-05T10:38:08.805Z,19.92
2023-05-05T10:39:08.798Z,20.07
2023-05-05T10:40:09.046Z,19.83
2023-05-05T10:41:08.800Z,19.83
2023-05-05T10:42:08.790Z,19.90
2023-05-05T10:43:08.818Z,20.04
2023-05-05T10:44:08.743Z,19.86
2023-05-05T10:45:08.761Z,19.78
2023-05-05T10:46:08.778Z,19.72
2023-05-05T10:47:08.735Z,19.75
2023-05-05T10:48:08.755Z,19.71
2023-05-05T10:49:09.705Z,19.50
2023-05-05T10:50:08.876Z,19.50
2023-05-05T10:51:08.693Z,19.58
2023-05-05T10:52:08.680Z,19.50
2023-05-05T10:53:08.651Z,19.43
2023-05-05T10:54:08.728Z,19.30
2023-05-05T10:55:08.649Z,19.25
2023-05-05T10:56:08.638Z,19.23
2023-05-05T10:57:08.635Z,19.45
2023-05-05T10:58:08.612Z,19.67
2023-05-05T10:59:08.632Z,19.58
2023-05-05T11:00:08.918Z,19.89
2023-05-05T11:01:08.624Z,20.20
2023-05-05T11:02:08.580Z,19.82
2023-05-05T11:03:08.655Z,19.86
2023-05-05T11:04:08.577Z,19.79
2023-05-05T11:05:08.577Z,19.79
2023-05-05T11:06:08.940Z,19.97
2023-05-05T11:07:09.661Z,20.08
2023-05-05T11:08:08.517Z,20.27
2023-05-05T11:09:08.513Z,20.41
2023-05-05T11:10:08.753Z,20.50
2023-05-05T11:11:08.484Z,20.56
2023-05-05T11:12:08.478Z,20.58
2023-05-05T11:13:08.556Z,20.40
2023-05-05T11:14:08.459Z,20.22
2023-05-05T11:15:08.529Z,20.42
2023-05-05T11:16:08.545Z,20.69
2023-05-05T11:17:08.435Z,20.94
2023-05-05T11:18:08.855Z,21.27
2023-05-05T11:19:08.426Z,21.45
2023-05-05T11:20:08.656Z,21.61
2023-05-05T11:21:08.390Z,21.38
2023-05-05T11:22:08.401Z,21.05
2023-05-05T11:23:08.385Z,21.08
2023-05-05T11:24:08.383Z,21.12
2023-05-05T11:25:08.350Z,20.82
2023-05-05T11:26:08.344Z,20.76
2023-05-05T11:27:08.328Z,20.69
2023-05-05T11:28:08.371Z,20.63
2023-05-05T11:29:08.314Z,20.50
2023-05-05T11:30:08.441Z,20.27
2023-05-05T11:31:08.367Z,19.90
2023-05-05T11:32:08.300Z,19.79
2023-05-05T11:33:08.356Z,19.64
2023-05-05T11:34:08.258Z,19.46
2023-05-05T11:35:08.264Z,19.45
2023-05-05T11:36:08.253Z,19.38
2023-05-05T11:37:08.287Z,19.40
2023-05-05T11:38:08.230Z,19.39
2023-05-05T11:39:08.220Z,19.47
2023-05-05T11:40:08.284Z,19.49
2023-05-05T11:41:08.185Z,19.42
2023-05-05T11:42:10.756Z,19.35
2023-05-05T11:43:09.169Z,19.31
2023-05-05T11:44:08.156Z,19.23
2023-05-05T11:45:08.153Z,19.23
2023-05-05T11:46:08.186Z,19.25
2023-05-05T11:47:08.253Z,19.32
2023-05-05T11:48:08.217Z,19.42
2023-05-05T11:49:08.118Z,19.28
2023-05-05T11:50:08.344Z,19.20
2023-05-05T11:51:08.293Z,19.27
2023-05-05T11:52:09.096Z,19.45
2023-05-05T11:53:08.071Z,19.47
2023-05-05T11:54:08.057Z,19.60
2023-05-05T11:55:08.059Z,19.62
2023-05-05T11:56:08.069Z,19.65
2023-05-05T11:57:08.050Z,19.61
2023-05-05T11:58:08.028Z,19.61
2023-05-05T11:59:08.033Z,19.55
2023-05-05T12:00:08.304Z,19.40
2023-05-05T12:01:08.013Z,19.31
2023-05-05T12:02:07.993Z,19.16
2023-05-05T12:03:08.134Z,19.23
2023-05-05T12:04:08.119Z,19.25
2023-05-05T12:05:07.983Z,19.05
2023-05-05T12:06:07.956Z,18.94
2023-05-05T12:07:07.962Z,18.96
2023-05-05T12:08:07.930Z,18.96
2023-05-05T12:09:07.921Z,18.99
2023-05-05T12:10:08.175Z,19.09
2023-05-05T12:11:07.903Z,18.96
2023-05-05T12:12:08.899Z,19.01
2023-05-05T12:13:07.964Z,18.76
2023-05-05T12:14:07.882Z,18.51
2023-05-05T12:15:07.895Z,18.57
2023-05-05T12:16:07.866Z,18.51
2023-05-05T12:17:07.840Z,18.21
2023-05-05T12:18:07.866Z,18.05
2023-05-05T12:19:07.991Z,17.80
2023-05-05T12:20:08.066Z,17.94
2023-05-05T12:21:07.803Z,18.05
2023-05-05T12:22:07.801Z,18.19
2023-05-05T12:23:07.798Z,18.36
2023-05-05T12:24:07.793Z,18.26
2023-05-05T12:25:07.833Z,18.28
2023-05-05T12:26:07.766Z,18.42
2023-05-05T12:27:07.756Z,18.53
2023-05-05T12:28:07.756Z,18.53
2023-05-05T12:29:07.755Z,18.49
2023-05-05T12:30:07.867Z,18.56
2023-05-05T12:31:07.794Z,18.50
2023-05-05T12:32:07.746Z,18.64
2023-05-05T12:33:07.715Z,18.78
2023-05-05T12:34:07.712Z,18.75
2023-05-05T12:35:07.749Z,18.86
2023-05-05T12:36:07.692Z,18.83
2023-05-05T12:37:07.659Z,18.82
2023-05-05T12:38:07.661Z,18.91
2023-05-05T12:39:07.630Z,18.84
2023-05-05T12:40:07.753Z,18.79
2023-05-05T12:41:07.623Z,18.71
2023-05-05T12:42:07.599Z,18.69
2023-05-05T12:43:07.611Z,18.75
2023-05-05T12:44:07.579Z,18.74
2023-05-05T12:45:07.571Z,18.54
2023-05-05T12:46:07.601Z,18.26
2023-05-05T12:47:07.579Z,17.76
2023-05-05T12:48:07.582Z,17.70
2023-05-05T12:49:08.526Z,17.63
2023-05-05T12:50:07.730Z,17.65
2023-05-05T12:51:07.580Z,17.62
2023-05-05T12:52:07.518Z,17.40
2023-05-05T12:53:07.505Z,17.28